sensor_id;sensor_type;location;lat;lon;timestamp;temperature;humidity
54461;DHT22;40371;49.414;11.010;2023-04-03T00:01:02;5.40;99.90
54461;DHT22;40371;49.414;11.010;2023-04-03T00:03:28;5.40;99.90
54461;DHT22;40371;49.414;11.010;2023-04-03T00:05:53;5.40;99.90
54461;DHT22;40371;49.414;11.010;2023-04-03T00:08:20;5.40;99.90
54461;DHT22;40371;49.414;11.010;2023-04-03T00:10:46;5.40;99.90
54461;DHT22;40371;49.414;11.010;2023-04-03T00:13:12;5.30;99.90
54461;DHT22;40371;49.414;11.010;2023-04-03T00:15:38;5.30;99.90
54461;DHT22;40371;49.414;11.010;2023-04-03T00:18:04;5.40;99.90
54461;DHT22;40371;49.414;11.010;2023-04-03T00:20:30;5.30;99.90
54461;DHT22;40371;49.414;11.010;2023-04-03T00:22:56;5.30;99.90
54461;DHT22;40371;49.414;11.010;2023-04-03T00:25:21;5.30;99.90
54461;DHT22;40371;49.414;11.010;2023-04-03T00:27:47;5.30;99.90
54461;DHT22;40371;49.414;11.010;2023-04-03T00:30:15;5.40;99.90
54461;DHT22;40371;49.414;11.010;2023-04-03T00:32:41;5.30;99.90
54461;DHT22;40371;49.414;11.010;2023-04-03T00:35:07;5.30;99.90
54461;DHT22;40371;49.414;11.010;2023-04-03T00:37:33;5.20;99.90
54461;DHT22;40371;49.414;11.010;2023-04-03T00:39:59;5.10;99.90
54461;DHT22;40371;49.414;11.010;2023-04-03T00:42:25;5.20;99.90
54461;DHT22;40371;49.414;11.010;2023-04-03T00:47:23;5.30;99.90
54461;DHT22;40371;49.414;11.010;2023-04-03T00:49:49;5.10;99.90
54461;DHT22;40371;49.414;11.010;2023-04-03T00:52:19;5.10;99.90
54461;DHT22;40371;49.414;11.010;2023-04-03T00:54:47;5.10;99.90
54461;DHT22;40371;49.414;11.010;2023-04-03T00:57:14;5.20;99.90
54461;DHT22;40371;49.414;11.010;2023-04-03T00:59:44;5.10;99.90
54461;DHT22;40371;49.414;11.010;2023-04-03T01:02:11;5.00;99.90
54461;DHT22;40371;49.414;11.010;2023-04-03T01:04:40;5.10;99.90
54461;DHT22;40371;49.414;11.010;2023-04-03T01:07:14;5.10;99.90
54461;DHT22;40371;49.414;11.010;2023-04-03T01:09:41;5.10;99.90
54461;DHT22;40371;49.414;11.010;2023-04-03T01:12:22;5.00;99.90
54461;DHT22;40371;49.414;11.010;2023-04-03T01:14:56;5.00;99.90
54461;DHT22;40371;49.414;11.010;2023-04-03T01:20:02;5.10;99.90
54461;DHT22;40371;49.414;11.010;2023-04-03T01:22:56;5.10;99.90
54461;DHT22;40371;49.414;11.010;2023-04-03T01:25:23;5.10;99.90
54461;DHT22;40371;49.414;11.010;2023-04-03T01:27:49;5.10;99.90
54461;DHT22;40371;49.414;11.010;2023-04-03T01:30:18;5.00;99.90
54461;DHT22;40371;49.414;11.010;2023-04-03T01:32:43;5.10;99.90
54461;DHT22;40371;49.414;11.010;2023-04-03T01:35:12;5.10;99.90
54461;DHT22;40371;49.414;11.010;2023-04-03T01:37:38;5.10;99.90
54461;DHT22;40371;49.414;11.010;2023-04-03T01:40:04;5.10;99.90
54461;DHT22;40371;49.414;11.010;2023-04-03T01:42:31;5.10;99.90
54461;DHT22;40371;49.414;11.010;2023-04-03T01:44:57;5.00;99.90
54461;DHT22;40371;49.414;11.010;2023-04-03T01:47:22;4.90;99.90
54461;DHT22;40371;49.414;11.010;2023-04-03T01:49:48;4.90;99.90
54461;DHT22;40371;49.414;11.010;2023-04-03T01:52:14;4.90;99.90
54461;DHT22;40371;49.414;11.010;2023-04-03T01:54:39;4.80;99.90
54461;DHT22;40371;49.414;11.010;2023-04-03T01:57:05;4.80;99.90
54461;DHT22;40371;49.414;11.010;2023-04-03T01:59:30;4.80;99.90
54461;DHT22;40371;49.414;11.010;2023-04-03T02:01:56;4.80;99.90
54461;DHT22;40371;49.414;11.010;2023-04-03T02:04:22;4.70;99.90
54461;DHT22;40371;49.414;11.010;2023-04-03T02:06:48;4.70;99.90
54461;DHT22;40371;49.414;11.010;2023-04-03T02:09:14;4.70;99.90
54461;DHT22;40371;49.414;11.010;2023-04-03T02:11:39;4.60;99.90
54461;DHT22;40371;49.414;11.010;2023-04-03T02:14:05;4.60;99.90
54461;DHT22;40371;49.414;11.010;2023-04-03T02:16:31;4.60;99.90
54461;DHT22;40371;49.414;11.010;2023-04-03T02:18:57;4.70;99.90
54461;DHT22;40371;49.414;11.010;2023-04-03T02:21:23;4.60;99.90
54461;DHT22;40371;49.414;11.010;2023-04-03T02:23:49;4.60;99.90
54461;DHT22;40371;49.414;11.010;2023-04-03T02:26:15;4.60;99.90
54461;DHT22;40371;49.414;11.010;2023-04-03T02:28:44;4.40;99.90
54461;DHT22;40371;49.414;11.010;2023-04-03T02:31:10;4.50;99.90
54461;DHT22;40371;49.414;11.010;2023-04-03T02:33:37;4.60;99.90
54461;DHT22;40371;49.414;11.010;2023-04-03T02:36:04;4.50;99.90
54461;DHT22;40371;49.414;11.010;2023-04-03T02:38:31;4.50;99.90
54461;DHT22;40371;49.414;11.010;2023-04-03T02:41:02;4.40;99.90
54461;DHT22;40371;49.414;11.010;2023-04-03T02:43:28;4.40;99.90
54461;DHT22;40371;49.414;11.010;2023-04-03T02:45:53;4.40;99.90
54461;DHT22;40371;49.414;11.010;2023-04-03T02:48:19;4.30;99.90
54461;DHT22;40371;49.414;11.010;2023-04-03T02:50:44;4.30;99.90
54461;DHT22;40371;49.414;11.010;2023-04-03T02:53:10;4.30;99.90
54461;DHT22;40371;49.414;11.010;2023-04-03T02:55:36;4.20;99.90
54461;DHT22;40371;49.414;11.010;2023-04-03T02:58:01;4.30;99.90
54461;DHT22;40371;49.414;11.010;2023-04-03T03:00:27;4.20;99.90
54461;DHT22;40371;49.414;11.010;2023-04-03T03:02:53;4.20;99.90
54461;DHT22;40371;49.414;11.010;2023-04-03T03:05:18;4.10;99.90
54461;DHT22;40371;49.414;11.010;2023-04-03T03:07:44;4.20;99.90
54461;DHT22;40371;49.414;11.010;2023-04-03T03:10:10;4.20;99.90
54461;DHT22;40371;49.414;11.010;2023-04-03T03:12:35;4.10;99.90
54461;DHT22;40371;49.414;11.010;2023-04-03T03:15:01;4.10;99.90
54461;DHT22;40371;49.414;11.010;2023-04-03T03:17:27;4.10;99.90
54461;DHT22;40371;49.414;11.010;2023-04-03T03:19:52;4.10;99.90
54461;DHT22;40371;49.414;11.010;2023-04-03T03:22:18;4.10;99.90
54461;DHT22;40371;49.414;11.010;2023-04-03T03:24:43;4.10;99.90
54461;DHT22;40371;49.414;11.010;2023-04-03T03:27:09;4.00;99.90
54461;DHT22;40371;49.414;11.010;2023-04-03T03:29:35;4.00;99.90
54461;DHT22;40371;49.414;11.010;2023-04-03T03:32:02;4.10;99.90
54461;DHT22;40371;49.414;11.010;2023-04-03T03:34:28;4.00;99.90
54461;DHT22;40371;49.414;11.010;2023-04-03T03:36:54;4.00;99.90
54461;DHT22;40371;49.414;11.010;2023-04-03T03:39:20;4.00;99.90
54461;DHT22;40371;49.414;11.010;2023-04-03T03:41:46;4.10;99.90
54461;DHT22;40371;49.414;11.010;2023-04-03T03:44:13;4.10;99.90
54461;DHT22;40371;49.414;11.010;2023-04-03T03:46:38;4.10;99.90
54461;DHT22;40371;49.414;11.010;2023-04-03T03:49:04;4.10;99.90
54461;DHT22;40371;49.414;11.010;2023-04-03T03:51:30;4.00;99.90
54461;DHT22;40371;49.414;11.010;2023-04-03T03:53:57;4.10;99.90
54461;DHT22;40371;49.414;11.010;2023-04-03T03:56:22;4.00;99.90
54461;DHT22;40371;49.414;11.010;2023-04-03T03:58:48;4.00;99.90
54461;DHT22;40371;49.414;11.010;2023-04-03T04:01:15;4.00;99.90
54461;DHT22;40371;49.414;11.010;2023-04-03T04:03:46;3.90;99.90
54461;DHT22;40371;49.414;11.010;2023-04-03T04:06:15;3.90;99.90
54461;DHT22;40371;49.414;11.010;2023-04-03T04:08:42;3.80;99.90
54461;DHT22;40371;49.414;11.010;2023-04-03T04:11:09;3.90;99.90
54461;DHT22;40371;49.414;11.010;2023-04-03T04:13:36;3.90;99.90
54461;DHT22;40371;49.414;11.010;2023-04-03T04:16:03;4.00;99.90
54461;DHT22;40371;49.414;11.010;2023-04-03T04:18:29;3.90;99.90
54461;DHT22;40371;49.414;11.010;2023-04-03T04:20:55;3.90;99.90
54461;DHT22;40371;49.414;11.010;2023-04-03T04:23:21;4.00;99.90
54461;DHT22;40371;49.414;11.010;2023-04-03T04:25:49;4.00;99.90
54461;DHT22;40371;49.414;11.010;2023-04-03T04:28:15;4.00;99.90
54461;DHT22;40371;49.414;11.010;2023-04-03T04:30:42;3.80;99.90
54461;DHT22;40371;49.414;11.010;2023-04-03T04:33:08;3.90;99.90
54461;DHT22;40371;49.414;11.010;2023-04-03T04:35:34;4.00;99.90
54461;DHT22;40371;49.414;11.010;2023-04-03T04:38:01;4.00;99.90
54461;DHT22;40371;49.414;11.010;2023-04-03T04:40:27;3.90;99.90
54461;DHT22;40371;49.414;11.010;2023-04-03T04:42:53;4.00;99.90
54461;DHT22;40371;49.414;11.010;2023-04-03T04:45:19;3.90;99.90
54461;DHT22;40371;49.414;11.010;2023-04-03T04:47:46;4.00;99.90
54461;DHT22;40371;49.414;11.010;2023-04-03T04:50:12;4.00;99.90
54461;DHT22;40371;49.414;11.010;2023-04-03T04:52:38;3.90;99.90
54461;DHT22;40371;49.414;11.010;2023-04-03T04:55:06;3.90;99.90
54461;DHT22;40371;49.414;11.010;2023-04-03T04:57:32;3.70;99.90
54461;DHT22;40371;49.414;11.010;2023-04-03T04:59:58;3.50;99.90
54461;DHT22;40371;49.414;11.010;2023-04-03T05:02:24;3.40;99.90
54461;DHT22;40371;49.414;11.010;2023-04-03T05:04:50;3.50;99.90
54461;DHT22;40371;49.414;11.010;2023-04-03T05:07:20;3.60;99.90
54461;DHT22;40371;49.414;11.010;2023-04-03T05:09:46;3.60;99.90
54461;DHT22;40371;49.414;11.010;2023-04-03T05:12:13;3.60;99.90
54461;DHT22;40371;49.414;11.010;2023-04-03T05:14:45;3.70;99.90
54461;DHT22;40371;49.414;11.010;2023-04-03T05:17:11;3.90;99.90
54461;DHT22;40371;49.414;11.010;2023-04-03T05:19:40;3.90;99.90
54461;DHT22;40371;49.414;11.010;2023-04-03T05:22:07;3.90;99.90
54461;DHT22;40371;49.414;11.010;2023-04-03T05:24:34;3.90;99.90
54461;DHT22;40371;49.414;11.010;2023-04-03T05:27:00;3.80;99.90
54461;DHT22;40371;49.414;11.010;2023-04-03T05:29:26;3.90;99.90
54461;DHT22;40371;49.414;11.010;2023-04-03T05:31:52;3.90;99.90
54461;DHT22;40371;49.414;11.010;2023-04-03T05:34:18;3.90;99.90
54461;DHT22;40371;49.414;11.010;2023-04-03T05:36:46;4.00;99.90
54461;DHT22;40371;49.414;11.010;2023-04-03T05:39:13;4.00;99.90
54461;DHT22;40371;49.414;11.010;2023-04-03T05:41:42;4.10;99.90
54461;DHT22;40371;49.414;11.010;2023-04-03T05:44:07;4.10;99.90
54461;DHT22;40371;49.414;11.010;2023-04-03T05:46:33;4.20;99.90
54461;DHT22;40371;49.414;11.010;2023-04-03T05:49:02;3.90;99.90
54461;DHT22;40371;49.414;11.010;2023-04-03T05:51:34;4.00;99.90
54461;DHT22;40371;49.414;11.010;2023-04-03T05:54:12;4.00;99.90
54461;DHT22;40371;49.414;11.010;2023-04-03T05:56:39;4.10;99.90
54461;DHT22;40371;49.414;11.010;2023-04-03T05:59:05;4.20;99.90
54461;DHT22;40371;49.414;11.010;2023-04-03T06:01:31;4.30;99.90
54461;DHT22;40371;49.414;11.010;2023-04-03T06:03:57;4.40;99.90
54461;DHT22;40371;49.414;11.010;2023-04-03T06:06:24;4.60;99.90
54461;DHT22;40371;49.414;11.010;2023-04-03T06:08:50;4.40;99.90
54461;DHT22;40371;49.414;11.010;2023-04-03T06:11:15;4.40;99.90
54461;DHT22;40371;49.414;11.010;2023-04-03T06:13:41;4.30;99.90
54461;DHT22;40371;49.414;11.010;2023-04-03T06:16:12;4.40;99.90
54461;DHT22;40371;49.414;11.010;2023-04-03T06:18:39;4.60;99.90
54461;DHT22;40371;49.414;11.010;2023-04-03T06:21:05;4.50;99.90
54461;DHT22;40371;49.414;11.010;2023-04-03T06:23:33;4.60;99.90
54461;DHT22;40371;49.414;11.010;2023-04-03T06:25:58;4.70;99.90
54461;DHT22;40371;49.414;11.010;2023-04-03T06:28:25;4.80;99.90
54461;DHT22;40371;49.414;11.010;2023-04-03T06:30:50;4.60;99.90
54461;DHT22;40371;49.414;11.010;2023-04-03T06:33:16;4.60;99.90
54461;DHT22;40371;49.414;11.010;2023-04-03T06:35:41;4.70;99.90
54461;DHT22;40371;49.414;11.010;2023-04-03T06:38:07;4.90;99.90
54461;DHT22;40371;49.414;11.010;2023-04-03T06:40:35;5.00;99.90
54461;DHT22;40371;49.414;11.010;2023-04-03T06:43:01;5.20;99.90
54461;DHT22;40371;49.414;11.010;2023-04-03T06:45:27;5.20;99.90
54461;DHT22;40371;49.414;11.010;2023-04-03T06:47:53;5.10;99.90
54461;DHT22;40371;49.414;11.010;2023-04-03T06:50:19;5.20;99.90
54461;DHT22;40371;49.414;11.010;2023-04-03T06:52:45;5.10;99.90
54461;DHT22;40371;49.414;11.010;2023-04-03T06:55:11;5.10;99.90
54461;DHT22;40371;49.414;11.010;2023-04-03T06:57:36;5.10;99.90
54461;DHT22;40371;49.414;11.010;2023-04-03T07:00:05;5.20;99.90
54461;DHT22;40371;49.414;11.010;2023-04-03T07:02:31;5.30;99.90
54461;DHT22;40371;49.414;11.010;2023-04-03T07:04:56;5.30;99.90
54461;DHT22;40371;49.414;11.010;2023-04-03T07:07:22;5.40;99.90
54461;DHT22;40371;49.414;11.010;2023-04-03T07:09:48;5.60;99.90
54461;DHT22;40371;49.414;11.010;2023-04-03T07:12:14;5.60;99.90
54461;DHT22;40371;49.414;11.010;2023-04-03T07:14:41;5.80;99.90
54461;DHT22;40371;49.414;11.010;2023-04-03T07:17:06;5.80;99.90
54461;DHT22;40371;49.414;11.010;2023-04-03T07:19:32;5.70;99.90
54461;DHT22;40371;49.414;11.010;2023-04-03T07:21:58;5.30;99.90
54461;DHT22;40371;49.414;11.010;2023-04-03T07:24:23;5.50;99.90
54461;DHT22;40371;49.414;11.010;2023-04-03T07:26:50;5.50;99.90
54461;DHT22;40371;49.414;11.010;2023-04-03T07:29:16;5.60;99.90
54461;DHT22;40371;49.414;11.010;2023-04-03T07:31:42;5.90;99.90
54461;DHT22;40371;49.414;11.010;2023-04-03T07:34:08;5.90;99.90
54461;DHT22;40371;49.414;11.010;2023-04-03T07:36:34;6.00;99.90
54461;DHT22;40371;49.414;11.010;2023-04-03T07:38:59;6.20;99.90
54461;DHT22;40371;49.414;11.010;2023-04-03T07:41:25;6.90;99.90
54461;DHT22;40371;49.414;11.010;2023-04-03T07:43:50;7.60;99.90
54461;DHT22;40371;49.414;11.010;2023-04-03T07:46:17;7.50;99.90
54461;DHT22;40371;49.414;11.010;2023-04-03T07:48:43;7.10;99.90
54461;DHT22;40371;49.414;11.010;2023-04-03T07:51:09;7.20;99.90
54461;DHT22;40371;49.414;11.010;2023-04-03T07:53:36;7.00;99.90
54461;DHT22;40371;49.414;11.010;2023-04-03T07:56:01;6.80;99.90
54461;DHT22;40371;49.414;11.010;2023-04-03T07:58:28;7.20;99.90
54461;DHT22;40371;49.414;11.010;2023-04-03T08:00:54;7.70;99.90
54461;DHT22;40371;49.414;11.010;2023-04-03T08:03:20;7.50;99.90
54461;DHT22;40371;49.414;11.010;2023-04-03T08:05:47;8.10;99.90
54461;DHT22;40371;49.414;11.010;2023-04-03T08:08:19;8.20;99.90
54461;DHT22;40371;49.414;11.010;2023-04-03T08:10:51;8.20;99.90
54461;DHT22;40371;49.414;11.010;2023-04-03T08:13:18;8.00;99.90
54461;DHT22;40371;49.414;11.010;2023-04-03T08:15:44;7.90;99.90
54461;DHT22;40371;49.414;11.010;2023-04-03T08:18:10;7.90;99.90
54461;DHT22;40371;49.414;11.010;2023-04-03T08:20:37;8.20;99.90
54461;DHT22;40371;49.414;11.010;2023-04-03T08:23:03;8.20;99.90
54461;DHT22;40371;49.414;11.010;2023-04-03T08:25:29;8.60;99.90
54461;DHT22;40371;49.414;11.010;2023-04-03T08:27:55;8.80;99.90
54461;DHT22;40371;49.414;11.010;2023-04-03T08:30:21;8.90;99.90
54461;DHT22;40371;49.414;11.010;2023-04-03T08:32:46;9.20;99.90
54461;DHT22;40371;49.414;11.010;2023-04-03T08:35:15;9.30;99.90
54461;DHT22;40371;49.414;11.010;2023-04-03T08:37:41;10.20;99.90
54461;DHT22;40371;49.414;11.010;2023-04-03T08:40:10;12.50;98.30
54461;DHT22;40371;49.414;11.010;2023-04-03T08:42:47;13.90;97.20
54461;DHT22;40371;49.414;11.010;2023-04-03T08:50:29;15.00;82.90
54461;DHT22;40371;49.414;11.010;2023-04-03T08:52:59;16.60;75.50
54461;DHT22;40371;49.414;11.010;2023-04-03T08:55:39;15.40;74.30
54461;DHT22;40371;49.414;11.010;2023-04-03T08:58:15;18.40;69.50
54461;DHT22;40371;49.414;11.010;2023-04-03T09:01:19;17.60;63.50
54461;DHT22;40371;49.414;11.010;2023-04-03T09:03:45;19.80;59.10
54461;DHT22;40371;49.414;11.010;2023-04-03T09:06:26;21.20;58.10
54461;DHT22;40371;49.414;11.010;2023-04-03T09:09:35;20.20;58.20
54461;DHT22;40371;49.414;11.010;2023-04-03T09:12:27;23.90;53.60
54461;DHT22;40371;49.414;11.010;2023-04-03T09:15:20;18.10;54.50
54461;DHT22;40371;49.414;11.010;2023-04-03T09:22:59;12.90;59.20
54461;DHT22;40371;49.414;11.010;2023-04-03T09:25:27;12.40;62.40
54461;DHT22;40371;49.414;11.010;2023-04-03T09:27:59;11.70;64.40
54461;DHT22;40371;49.414;11.010;2023-04-03T09:30:26;10.50;68.10
54461;DHT22;40371;49.414;11.010;2023-04-03T09:32:54;10.70;70.40
54461;DHT22;40371;49.414;11.010;2023-04-03T09:35:26;10.40;70.70
54461;DHT22;40371;49.414;11.010;2023-04-03T09:37:55;10.40;70.60
54461;DHT22;40371;49.414;11.010;2023-04-03T09:40:35;10.70;70.70
54461;DHT22;40371;49.414;11.010;2023-04-03T09:45:43;10.20;70.60
54461;DHT22;40371;49.414;11.010;2023-04-03T09:50:52;8.80;75.10
54461;DHT22;40371;49.414;11.010;2023-04-03T09:53:40;9.20;75.00
54461;DHT22;40371;49.414;11.010;2023-04-03T09:58:46;9.60;75.40
54461;DHT22;40371;49.414;11.010;2023-04-03T10:04:10;12.50;66.30
54461;DHT22;40371;49.414;11.010;2023-04-03T10:06:50;11.40;68.10
54461;DHT22;40371;49.414;11.010;2023-04-03T10:14:34;11.70;65.70
54461;DHT22;40371;49.414;11.010;2023-04-03T10:20:08;11.40;63.10
54461;DHT22;40371;49.414;11.010;2023-04-03T10:25:26;9.70;69.10
54461;DHT22;40371;49.414;11.010;2023-04-03T10:33:34;11.70;64.90
54461;DHT22;40371;49.414;11.010;2023-04-03T10:36:19;10.90;66.00
54461;DHT22;40371;49.414;11.010;2023-04-03T10:44:52;11.00;66.50
54461;DHT22;40371;49.414;11.010;2023-04-03T10:47:30;11.40;66.50
54461;DHT22;40371;49.414;11.010;2023-04-03T10:53:07;13.30;61.90
54461;DHT22;40371;49.414;11.010;2023-04-03T10:58:27;11.40;64.40
54461;DHT22;40371;49.414;11.010;2023-04-03T11:01:00;10.50;64.10
54461;DHT22;40371;49.414;11.010;2023-04-03T11:03:31;9.80;67.80
54461;DHT22;40371;49.414;11.010;2023-04-03T11:06:01;10.10;67.70
54461;DHT22;40371;49.414;11.010;2023-04-03T11:08:40;10.30;67.70
54461;DHT22;40371;49.414;11.010;2023-04-03T11:11:20;10.20;67.70
54461;DHT22;40371;49.414;11.010;2023-04-03T11:16:27;10.30;65.30
54461;DHT22;40371;49.414;11.010;2023-04-03T11:21:46;10.90;65.00
54461;DHT22;40371;49.414;11.010;2023-04-03T11:24:24;12.10;62.30
54461;DHT22;40371;49.414;11.010;2023-04-03T11:26:52;12.10;61.70
54461;DHT22;40371;49.414;11.010;2023-04-03T11:29:22;11.50;62.10
54461;DHT22;40371;49.414;11.010;2023-04-03T11:34:57;12.80;62.80
54461;DHT22;40371;49.414;11.010;2023-04-03T11:37:48;14.30;61.00
54461;DHT22;40371;49.414;11.010;2023-04-03T11:42:43;17.10;51.80
54461;DHT22;40371;49.414;11.010;2023-04-03T12:11:15;14.20;55.30
54461;DHT22;40371;49.414;11.010;2023-04-03T12:16:26;13.60;56.80
54461;DHT22;40371;49.414;11.010;2023-04-03T12:21:24;15.70;54.80
54461;DHT22;40371;49.414;11.010;2023-04-03T12:29:34;12.10;55.50
54461;DHT22;40371;49.414;11.010;2023-04-03T12:46:48;12.70;58.10
54461;DHT22;40371;49.414;11.010;2023-04-03T12:51:52;13.10;58.40
54461;DHT22;40371;49.414;11.010;2023-04-03T12:57:17;11.70;58.70
54461;DHT22;40371;49.414;11.010;2023-04-03T12:59:43;11.70;59.90
54461;DHT22;40371;49.414;11.010;2023-04-03T13:02:25;11.50;59.60
54461;DHT22;40371;49.414;11.010;2023-04-03T13:04:53;11.50;58.90
54461;DHT22;40371;49.414;11.010;2023-04-03T13:07:25;12.10;60.40
54461;DHT22;40371;49.414;11.010;2023-04-03T13:09:59;13.00;59.10
54461;DHT22;40371;49.414;11.010;2023-04-03T13:12:26;13.00;58.10
54461;DHT22;40371;49.414;11.010;2023-04-03T13:14:54;12.20;58.40
54461;DHT22;40371;49.414;11.010;2023-04-03T13:17:21;12.20;58.50
54461;DHT22;40371;49.414;11.010;2023-04-03T13:19:48;12.20;58.20
54461;DHT22;40371;49.414;11.010;2023-04-03T13:22:33;11.90;58.00
54461;DHT22;40371;49.414;11.010;2023-04-03T13:25:07;10.30;58.80
54461;DHT22;40371;49.414;11.010;2023-04-03T13:27:34;9.70;61.50
54461;DHT22;40371;49.414;11.010;2023-04-03T13:30:02;10.90;60.10
54461;DHT22;40371;49.414;11.010;2023-04-03T13:32:29;11.50;58.90
54461;DHT22;40371;49.414;11.010;2023-04-03T13:34:56;12.40;58.80
54461;DHT22;40371;49.414;11.010;2023-04-03T13:37:28;13.00;58.60
54461;DHT22;40371;49.414;11.010;2023-04-03T13:40:13;12.70;58.80
54461;DHT22;40371;49.414;11.010;2023-04-03T13:42:40;12.30;58.30
54461;DHT22;40371;49.414;11.010;2023-04-03T13:47:46;12.30;60.00
54461;DHT22;40371;49.414;11.010;2023-04-03T13:52:42;10.80;60.50
54461;DHT22;40371;49.414;11.010;2023-04-03T13:58:32;11.70;60.80
54461;DHT22;40371;49.414;11.010;2023-04-03T14:01:11;12.00;60.80
54461;DHT22;40371;49.414;11.010;2023-04-03T14:03:44;12.00;60.10
54461;DHT22;40371;49.414;11.010;2023-04-03T14:06:14;12.30;59.90
54461;DHT22;40371;49.414;11.010;2023-04-03T14:08:40;12.10;59.60
54461;DHT22;40371;49.414;11.010;2023-04-03T14:11:30;11.70;59.60
54461;DHT22;40371;49.414;11.010;2023-04-03T14:13:59;11.20;60.20
54461;DHT22;40371;49.414;11.010;2023-04-03T14:16:28;10.90;60.80
54461;DHT22;40371;49.414;11.010;2023-04-03T14:18:55;10.30;60.90
54461;DHT22;40371;49.414;11.010;2023-04-03T14:21:21;10.40;62.80
54461;DHT22;40371;49.414;11.010;2023-04-03T14:23:47;10.80;63.00
54461;DHT22;40371;49.414;11.010;2023-04-03T14:26:22;11.00;62.20
54461;DHT22;40371;49.414;11.010;2023-04-03T14:28:52;11.10;61.10
54461;DHT22;40371;49.414;11.010;2023-04-03T14:31:20;11.40;62.40
54461;DHT22;40371;49.414;11.010;2023-04-03T14:33:46;11.60;61.70
54461;DHT22;40371;49.414;11.010;2023-04-03T14:36:21;11.50;60.70
54461;DHT22;40371;49.414;11.010;2023-04-03T14:38:49;11.40;60.70
54461;DHT22;40371;49.414;11.010;2023-04-03T14:41:17;11.10;60.80
54461;DHT22;40371;49.414;11.010;2023-04-03T14:43:44;11.00;61.40
54461;DHT22;40371;49.414;11.010;2023-04-03T14:46:14;11.00;61.50
54461;DHT22;40371;49.414;11.010;2023-04-03T14:48:40;10.80;61.10
54461;DHT22;40371;49.414;11.010;2023-04-03T14:51:06;10.50;62.20
54461;DHT22;40371;49.414;11.010;2023-04-03T14:53:32;10.50;62.70
54461;DHT22;40371;49.414;11.010;2023-04-03T14:55:58;10.40;62.50
54461;DHT22;40371;49.414;11.010;2023-04-03T14:58:24;10.50;63.20
54461;DHT22;40371;49.414;11.010;2023-04-03T15:00:49;10.90;62.90
54461;DHT22;40371;49.414;11.010;2023-04-03T15:03:17;10.80;62.40
54461;DHT22;40371;49.414;11.010;2023-04-03T15:05:45;10.50;62.80
54461;DHT22;40371;49.414;11.010;2023-04-03T15:08:26;10.50;63.40
54461;DHT22;40371;49.414;11.010;2023-04-03T15:10:52;10.40;63.00
54461;DHT22;40371;49.414;11.010;2023-04-03T15:13:19;9.80;64.50
54461;DHT22;40371;49.414;11.010;2023-04-03T15:15:45;10.10;63.50
54461;DHT22;40371;49.414;11.010;2023-04-03T15:18:15;9.80;64.70
54461;DHT22;40371;49.414;11.010;2023-04-03T15:20:42;9.90;64.40
54461;DHT22;40371;49.414;11.010;2023-04-03T15:23:10;10.00;63.70
54461;DHT22;40371;49.414;11.010;2023-04-03T15:25:36;9.90;65.40
54461;DHT22;40371;49.414;11.010;2023-04-03T15:28:01;9.60;65.10
54461;DHT22;40371;49.414;11.010;2023-04-03T15:30:27;9.40;65.10
54461;DHT22;40371;49.414;11.010;2023-04-03T15:32:53;9.50;65.20
54461;DHT22;40371;49.414;11.010;2023-04-03T15:35:18;9.10;65.10
54461;DHT22;40371;49.414;11.010;2023-04-03T15:37:44;9.20;65.80
54461;DHT22;40371;49.414;11.010;2023-04-03T15:40:10;8.90;66.00
54461;DHT22;40371;49.414;11.010;2023-04-03T15:42:37;8.80;66.50
54461;DHT22;40371;49.414;11.010;2023-04-03T15:45:03;8.90;66.80
54461;DHT22;40371;49.414;11.010;2023-04-03T15:47:29;8.90;66.70
54461;DHT22;40371;49.414;11.010;2023-04-03T15:49:54;8.90;66.80
54461;DHT22;40371;49.414;11.010;2023-04-03T15:52:20;8.90;67.60
54461;DHT22;40371;49.414;11.010;2023-04-03T15:54:46;9.00;67.30
54461;DHT22;40371;49.414;11.010;2023-04-03T15:57:12;9.10;67.80
54461;DHT22;40371;49.414;11.010;2023-04-03T15:59:38;9.30;67.70
54461;DHT22;40371;49.414;11.010;2023-04-03T16:02:05;9.20;66.70
54461;DHT22;40371;49.414;11.010;2023-04-03T16:04:33;9.40;67.00
54461;DHT22;40371;49.414;11.010;2023-04-03T16:07:02;9.20;66.70
54461;DHT22;40371;49.414;11.010;2023-04-03T16:09:28;9.00;73.70
54461;DHT22;40371;49.414;11.010;2023-04-03T16:11:53;9.30;69.30
54461;DHT22;40371;49.414;11.010;2023-04-03T16:14:20;9.20;67.20
54461;DHT22;40371;49.414;11.010;2023-04-03T16:16:45;9.10;66.90
54461;DHT22;40371;49.414;11.010;2023-04-03T16:19:11;8.60;67.50
54461;DHT22;40371;49.414;11.010;2023-04-03T16:21:37;8.70;67.90
54461;DHT22;40371;49.414;11.010;2023-04-03T16:24:03;8.80;67.60
54461;DHT22;40371;49.414;11.010;2023-04-03T16:26:29;8.50;67.60
54461;DHT22;40371;49.414;11.010;2023-04-03T16:28:54;8.20;67.90
54461;DHT22;40371;49.414;11.010;2023-04-03T16:31:20;8.20;68.30
54461;DHT22;40371;49.414;11.010;2023-04-03T16:33:47;8.30;68.90
54461;DHT22;40371;49.414;11.010;2023-04-03T16:36:12;8.30;68.70
54461;DHT22;40371;49.414;11.010;2023-04-03T16:38:38;8.30;69.00
54461;DHT22;40371;49.414;11.010;2023-04-03T16:41:04;8.30;68.80
54461;DHT22;40371;49.414;11.010;2023-04-03T16:43:33;8.20;69.00
54461;DHT22;40371;49.414;11.010;2023-04-03T16:45:59;8.30;68.70
54461;DHT22;40371;49.414;11.010;2023-04-03T16:48:24;8.30;69.00
54461;DHT22;40371;49.414;11.010;2023-04-03T16:50:50;8.10;69.50
54461;DHT22;40371;49.414;11.010;2023-04-03T16:53:20;7.90;69.30
54461;DHT22;40371;49.414;11.010;2023-04-03T16:55:46;7.80;69.70
54461;DHT22;40371;49.414;11.010;2023-04-03T16:58:11;7.80;70.50
54461;DHT22;40371;49.414;11.010;2023-04-03T17:00:37;7.80;70.30
54461;DHT22;40371;49.414;11.010;2023-04-03T17:03:03;7.80;70.40
54461;DHT22;40371;49.414;11.010;2023-04-03T17:05:28;7.70;70.40
54461;DHT22;40371;49.414;11.010;2023-04-03T17:07:54;7.40;70.20
54461;DHT22;40371;49.414;11.010;2023-04-03T17:10:20;7.20;70.70
54461;DHT22;40371;49.414;11.010;2023-04-03T17:12:46;7.30;74.80
54461;DHT22;40371;49.414;11.010;2023-04-03T17:15:11;7.40;73.20
54461;DHT22;40371;49.414;11.010;2023-04-03T17:17:37;6.90;72.70
54461;DHT22;40371;49.414;11.010;2023-04-03T17:20:03;7.20;74.90
54461;DHT22;40371;49.414;11.010;2023-04-03T17:22:29;6.80;71.70
54461;DHT22;40371;49.414;11.010;2023-04-03T17:24:55;6.90;72.30
54461;DHT22;40371;49.414;11.010;2023-04-03T17:27:22;6.60;72.10
54461;DHT22;40371;49.414;11.010;2023-04-03T17:29:47;6.60;72.60
54461;DHT22;40371;49.414;11.010;2023-04-03T17:32:13;6.70;72.70
54461;DHT22;40371;49.414;11.010;2023-04-03T17:34:39;6.60;72.90
54461;DHT22;40371;49.414;11.010;2023-04-03T17:37:04;6.50;73.20
54461;DHT22;40371;49.414;11.010;2023-04-03T17:39:30;6.40;73.30
54461;DHT22;40371;49.414;11.010;2023-04-03T17:41:56;6.40;73.70
54461;DHT22;40371;49.414;11.010;2023-04-03T17:44:22;6.30;74.00